Time;durP1;ratioP1;P1;durP2;ratioP2;P2;SDS_P1;SDS_P2;PMS_P1;PMS_P2;Temp;Humidity;BMP_temperature;BMP_pressure;BME280_temperature;BME280_humidity;BME280_pressure;Samples;Min_cycle;Max_cycle;Signal;HPM_P1;HPM_P2
2021/11/02 00:06:52;;;;;;;5.50;2.20;;;7.30;99.90;;;;;;20548045;28;20053;-43
2021/11/02 00:17:07;;;;;;;6.50;2.50;;;7.30;99.90;;;;;;20543888;28;20042;-43
2021/11/02 00:27:08;;;;;;;4.15;1.95;;;7.30;99.90;;;;;;20546807;28;20077;-43
2021/11/02 00:37:09;;;;;;;5.10;2.55;;;7.30;99.90;;;;;;20542977;28;20062;-43
2021/11/02 00:47:17;;;;;;;4.30;2.13;;;7.20;99.90;;;;;;20544050;28;20053;-43
2021/11/02 00:57:18;;;;;;;7.40;2.65;;;7.10;99.90;;;;;;20535013;28;20054;-43
2021/11/02 01:07:19;;;;;;;6.20;2.28;;;7.20;99.90;;;;;;20548766;28;20408;-43
2021/11/02 01:17:21;;;;;;;8.43;2.65;;;7.10;99.90;;;;;;20536746;28;20260;-43
2021/11/02 01:27:22;;;;;;;4.18;2.00;;;7.00;99.90;;;;;;20540251;28;20049;-43
2021/11/02 01:37:24;;;;;;;4.38;2.00;;;7.10;99.90;;;;;;20545401;28;20058;-43
2021/11/02 01:47:25;;;;;;;7.13;2.30;;;7.10;99.90;;;;;;20534050;28;20054;-43
2021/11/02 01:57:27;;;;;;;5.30;2.45;;;7.10;99.90;;;;;;20548127;28;20046;-43
2021/11/02 02:07:51;;;;;;;4.57;2.40;;;7.10;99.90;;;;;;20539581;28;20034;-43
2021/11/02 02:18:05;;;;;;;3.58;1.77;;;7.10;99.90;;;;;;20529846;28;20047;-43
2021/11/02 02:28:14;;;;;;;7.13;2.17;;;7.10;99.90;;;;;;20541124;28;20050;-43
2021/11/02 02:38:19;;;;;;;6.07;2.63;;;7.00;99.90;;;;;;20528750;28;20813;-43
2021/11/02 02:48:22;;;;;;;5.43;1.95;;;7.00;99.90;;;;;;20529769;28;20603;-43
2021/11/02 02:58:24;;;;;;;6.55;2.88;;;7.00;99.90;;;;;;20535941;28;20534;-43
2021/11/02 03:08:25;;;;;;;5.43;2.28;;;6.80;99.90;;;;;;20530685;28;20030;-43
2021/11/02 03:49:42;;;;;;;10.18;2.72;;;6.80;99.90;;;;;;20550760;28;20081;-43
2021/11/02 04:00:16;;;;;;;4.18;2.08;;;6.70;99.90;;;;;;20522593;28;20055;-43
2021/11/02 06:34:41;;;;;;;6.17;1.83;;;6.80;99.90;;;;;;20535017;28;20043;-43
2021/11/02 07:16:14;;;;;;;10.43;2.95;;;7.20;99.90;;;;;;20561470;28;20058;-43
2021/11/02 08:49:45;;;;;;;7.43;2.92;;;7.90;99.90;;;;;;20551882;28;22069;-43
2021/11/02 08:59:48;;;;;;;9.10;3.03;;;7.90;99.90;;;;;;20546714;28;20078;-43
2021/11/02 09:09:50;;;;;;;9.48;2.75;;;8.00;99.90;;;;;;20560393;28;20499;-43
2021/11/02 09:19:51;;;;;;;6.32;2.88;;;8.10;99.90;;;;;;20553210;28;20034;-43
2021/11/02 09:29:54;;;;;;;7.88;3.15;;;8.20;99.90;;;;;;20545194;28;20047;-43
2021/11/02 09:40:01;;;;;;;10.75;4.47;;;8.20;99.90;;;;;;20554387;28;20054;-43
2021/11/02 09:50:05;;;;;;;;;;;8.30;99.90;;;;;;20547562;28;20059;-43
2021/11/02 10:00:10;;;;;;;9.18;3.78;;;8.40;99.90;;;;;;20501047;28;19933;-43
2021/11/02 10:10:21;;;;;;;9.27;3.40;;;8.40;99.90;;;;;;20507528;28;20257;-43
2021/11/02 10:20:28;;;;;;;13.80;4.47;;;8.40;99.90;;;;;;20545181;28;20042;-43
2021/11/02 10:30:54;;;;;;;12.73;4.13;;;8.50;99.90;;;;;;20542425;28;20047;-43
2021/11/02 10:41:00;;;;;;;8.82;3.38;;;8.70;99.90;;;;;;20547370;28;20050;-43
2021/11/02 10:51:06;;;;;;;8.15;3.75;;;8.80;99.90;;;;;;20519740;28;20055;-43
2021/11/02 11:01:09;;;;;;;11.73;4.60;;;8.90;99.90;;;;;;20535929;28;20042;-43
2021/11/02 11:11:13;;;;;;;12.52;4.85;;;9.00;99.90;;;;;;20523390;28;20520;-43
2021/11/02 11:21:16;;;;;;;10.95;5.25;;;9.00;99.90;;;;;;20533921;28;20078;-43
2021/11/02 11:31:19;;;;;;;10.00;3.88;;;9.20;99.90;;;;;;20537029;28;20062;-43
2021/11/02 11:41:24;;;;;;;13.32;4.10;;;9.30;99.90;;;;;;20563209;28;20059;-43
2021/11/02 11:51:29;;;;;;;10.88;4.72;;;9.40;99.90;;;;;;20513359;28;20528;-43
2021/11/02 12:01:30;;;;;;;6.25;4.13;;;9.30;99.90;;;;;;20531195;28;20046;-43
2021/11/02 12:11:35;;;;;;;8.23;3.00;;;9.40;99.90;;;;;;20545276;28;20050;-43
2021/11/02 12:21:38;;;;;;;11.77;3.75;;;9.60;99.90;;;;;;20539029;28;20535;-43
2021/11/02 12:31:39;;;;;;;9.70;3.67;;;9.70;99.90;;;;;;20528180;28;20039;-44
2021/11/02 12:41:51;;;;;;;10.18;3.60;;;9.60;99.90;;;;;;20527401;28;20729;-43
2021/11/02 12:51:55;;;;;;;6.78;3.28;;;9.60;99.90;;;;;;20536286;28;20039;-44
2021/11/02 13:01:59;;;;;;;10.25;3.38;;;9.50;99.90;;;;;;20502488;28;20619;-43
2021/11/02 13:12:09;;;;;;;4.75;1.75;;;9.60;99.90;;;;;;20533009;28;20172;-43
2021/11/02 13:22:11;;;;;;;4.35;2.08;;;9.40;99.90;;;;;;20530036;28;20054;-43
2021/11/02 13:32:14;;;;;;;5.88;2.20;;;9.30;99.90;;;;;;20529434;28;20043;-44
2021/11/02 13:42:15;;;;;;;6.28;2.30;;;9.30;99.90;;;;;;20535888;28;20509;-43
2021/11/02 13:52:17;;;;;;;5.45;2.45;;;9.50;99.90;;;;;;20528514;28;20055;-43
2021/11/02 14:02:18;;;;;;;3.47;1.92;;;9.70;99.90;;;;;;20520380;28;20042;-43
2021/11/02 14:12:30;;;;;;;5.68;2.58;;;9.70;99.90;;;;;;20530198;28;20046;-43
2021/11/02 14:22:46;;;;;;;5.93;2.20;;;9.70;99.90;;;;;;20532060;28;20034;-43
2021/11/02 14:32:49;;;;;;;4.57;2.05;;;9.60;99.90;;;;;;20532422;28;20054;-43
2021/11/02 14:42:54;;;;;;;5.38;2.28;;;9.40;99.90;;;;;;20528996;28;20053;-43
2021/11/02 14:53:30;;;;;;;3.17;1.60;;;9.40;99.90;;;;;;20515185;28;20070;-43
2021/11/02 15:03:33;;;;;;;4.45;2.25;;;9.40;99.90;;;;;;20510490;28;20070;-44
2021/11/02 15:13:36;;;;;;;6.03;2.70;;;9.70;99.90;;;;;;20517554;28;20065;-43
2021/11/02 15:23:44;;;;;;;3.92;1.60;;;9.60;99.90;;;;;;20537444;28;20499;-43
2021/11/02 15:33:47;;;;;;;4.90;1.75;;;9.60;99.90;;;;;;20498431;28;20206;-43
2021/11/02 15:43:53;;;;;;;2.75;1.10;;;9.50;99.90;;;;;;20442791;28;20035;-44
2021/11/02 15:53:54;;;;;;;2.53;1.25;;;9.30;99.90;;;;;;20442144;28;20039;-43
2021/11/02 16:04:07;;;;;;;4.97;1.25;;;9.10;99.90;;;;;;20436061;28;20057;-44
2021/11/02 16:14:08;;;;;;;0.95;0.60;;;9.10;99.90;;;;;;20455668;28;20055;-44
2021/11/02 16:24:11;;;;;;;0.63;0.22;;;9.00;99.90;;;;;;20446545;28;20496;-44
2021/11/02 16:34:42;;;;;;;1.40;0.35;;;8.80;99.90;;;;;;20380835;28;1759165;-43
2021/11/02 16:44:45;;;;;;;0.90;0.40;;;8.80;99.90;;;;;;20452055;28;20059;-44
2021/11/02 16:54:46;;;;;;;0.73;0.20;;;8.80;99.90;;;;;;20468087;28;20389;-43
2021/11/02 17:05:08;;;;;;;0.52;0.17;;;8.80;99.90;;;;;;20462322;28;20039;-44
2021/11/02 17:15:10;;;;;;;0.73;0.32;;;8.80;99.90;;;;;;20470862;28;20059;-43
2021/11/02 17:25:11;;;;;;;0.93;0.30;;;8.60;99.90;;;;;;20453065;28;20050;-44
2021/11/02 17:35:16;;;;;;;0.95;0.30;;;8.60;99.90;;;;;;20448902;28;20098;-44
2021/11/02 17:45:18;;;;;;;0.55;0.13;;;8.50;99.90;;;;;;20442877;28;22941;-44
2021/11/02 17:55:19;;;;;;;3.33;0.15;;;8.50;99.90;;;;;;20437321;28;20833;-43
2021/11/02 18:05:31;;;;;;;0.47;0.20;;;8.30;99.90;;;;;;20491224;28;20043;-43
2021/11/02 18:15:36;;;;;;;0.35;0.10;;;8.30;99.90;;;;;;20445724;28;20055;-44
2021/11/02 18:25:37;;;;;;;1.40;0.03;;;8.20;99.90;;;;;;20448340;28;20043;-44
2021/11/02 18:35:39;;;;;;;0.63;0.30;;;8.10;99.90;;;;;;20459339;28;20063;-44
2021/11/02 18:45:41;;;;;;;0.38;0.10;;;8.20;99.90;;;;;;20463448;28;20125;-43
2021/11/02 18:55:44;;;;;;;0.85;0.20;;;8.10;99.90;;;;;;20460919;28;20058;-43
2021/11/02 19:05:46;;;;;;;0.52;0.17;;;8.10;99.90;;;;;;20461306;28;20027;-43
2021/11/02 19:15:47;;;;;;;0.80;0.30;;;8.00;99.90;;;;;;20449541;28;20417;-44
2021/11/02 19:25:50;;;;;;;0.40;0.20;;;8.10;99.90;;;;;;20472532;28;20039;-44
2021/11/02 19:35:51;;;;;;;1.50;0.28;;;8.30;99.90;;;;;;20482825;28;20646;-44
2021/11/02 19:45:54;;;;;;;1.00;0.30;;;8.30;99.90;;;;;;20577079;28;20038;-44
2021/11/02 19:55:56;;;;;;;4.88;2.45;;;8.20;99.90;;;;;;20562150;28;20060;-43
2021/11/02 20:05:59;;;;;;;0.93;0.40;;;8.20;99.90;;;;;;20553638;28;20030;-43
2021/11/02 20:16:01;;;;;;;3.08;0.95;;;8.20;99.90;;;;;;20563825;28;20043;-43
2021/11/02 20:26:04;;;;;;;3.85;1.67;;;8.10;99.90;;;;;;20539930;28;20047;-43
2021/11/02 20:36:08;;;;;;;2.13;0.70;;;8.00;99.90;;;;;;20577016;28;20158;-43
2021/11/02 20:46:13;;;;;;;4.88;1.45;;;7.90;99.90;;;;;;20558879;28;20046;-44
2021/11/02 20:56:16;;;;;;;3.13;1.48;;;7.70;99.90;;;;;;20599319;28;20049;-43
2021/11/02 21:06:21;;;;;;;4.45;1.65;;;7.60;99.90;;;;;;20561470;28;20380;-43
2021/11/02 21:16:26;;;;;;;5.65;1.95;;;7.60;99.90;;;;;;20584576;28;20042;-43
2021/11/02 21:26:30;;;;;;;4.13;1.67;;;7.60;99.90;;;;;;20552303;28;20039;-43
2021/11/02 21:36:34;;;;;;;4.07;1.38;;;7.60;99.90;;;;;;20541495;28;20054;-43
2021/11/02 21:46:41;;;;;;;3.92;1.55;;;7.30;99.90;;;;;;20540498;28;20409;-43
2021/11/02 21:56:50;;;;;;;2.70;1.23;;;7.20;99.90;;;;;;20559401;28;20422;-43
2021/11/02 22:06:51;;;;;;;2.20;1.02;;;7.00;99.90;;;;;;20553399;28;20038;-43
2021/11/02 22:16:54;;;;;;;1.67;0.90;;;6.90;99.90;;;;;;20544489;28;20042;-43
2021/11/02 22:26:57;;;;;;;1.83;0.90;;;6.80;99.90;;;;;;20550905;28;20332;-43
2021/11/02 22:36:58;;;;;;;3.60;1.02;;;6.70;99.90;;;;;;20572560;28;20058;-43
2021/11/02 22:46:59;;;;;;;2.30;1.00;;;6.50;99.90;;;;;;20560254;28;20062;-43
2021/11/02 22:57:01;;;;;;;4.60;0.73;;;6.30;99.90;;;;;;20541484;28;20050;-43
2021/11/02 23:07:02;;;;;;;2.42;0.82;;;6.30;99.90;;;;;;20544497;28;20038;-43
2021/11/02 23:17:04;;;;;;;1.95;1.10;;;6.30;99.90;;;;;;20537760;28;20054;-43
2021/11/02 23:27:05;;;;;;;2.83;1.15;;;6.20;99.90;;;;;;20535022;28;20492;-43
2021/11/02 23:37:06;;;;;;;7.72;2.30;;;5.90;99.90;;;;;;20565310;28;20067;-43
2021/11/02 23:47:08;;;;;;;7.75;2.72;;;5.90;99.90;;;;;;20551110;28;20038;-43
2021/11/02 23:57:09;;;;;;;4.15;2.13;;;6.00;99.90;;;;;;20558794;28;20050;-43
